ADDS METAR Data INFO
IDs: Format: Raw Decoded Include TAF

Data at: 1950 UTC 14 Aug 2018

KAMG 141853Z AUTO VRB03KT 10SM SCT041 BKN060 OVC090 33/22 A3000 RMK AO2 LTG DSNT S SLP157 T03330217
KAMG 141753Z AUTO 00000KT 10SM FEW110 32/22 A3003 RMK AO2 SLP166 T03170222 10328 20233 58008
KAMG 141653Z AUTO VRB05KT 10SM FEW030 32/22 A3005 RMK AO2 SLP172 T03170222
KAMG 141600Z AUTO 17003KT 10SM SCT025 31/23 A3005 RMK AO2 T03060233
KAMG 141553Z AUTO 22005KT 10SM SCT023 BKN029 32/24 A3005 RMK AO2 SLP173 T03170239
KAMG 141453Z AUTO 20006KT 10SM FEW012 30/24 A3005 RMK AO2 SLP174 T03000239 53001
KAMG 141406Z AUTO 20004KT 9SM FEW005 28/24 A3005 RMK AO2 T02780239
KAMG 141353Z AUTO 21005KT 8SM BKN005 26/24 A3005 RMK AO2 SLP173 T02610239
KAMG 141349Z AUTO 22006KT 7SM BKN005 26/23 A3005 RMK AO2
KAMG 141253Z AUTO 19007KT 7SM BKN004 25/23 A3005 RMK AO2 SLP173 T02500228
KAMG 141246Z AUTO 21004KT 7SM BKN004 25/23 A3005 RMK AO2 T02500228
KAMG 141153Z AUTO 00000KT 6SM BR SCT005 23/22 A3004 RMK AO2 SLP168 T02330217 10233 20222 53007
KAMG 141053Z AUTO 00000KT 4SM BR CLR 22/21 A3003 RMK AO2 SLP164 T02220211
KAMG 141043Z AUTO 00000KT 4SM BR CLR 22/21 A3002 RMK AO2 T02220211
KAMG 141035Z AUTO 00000KT 2 1/2SM BR CLR 22/21 A3002 RMK AO2 T02220206
KAMG 140953Z AUTO 00000KT 5SM BR CLR 22/21 A3002 RMK AO2 SLP162 T02220211
KAMG 140853Z AUTO 00000KT 8SM CLR 23/21 A3002 RMK AO2 SLP161 T02280211 58003
KAMG 140753Z AUTO 18003KT 9SM CLR 23/22 A3002 RMK AO2 SLP163 T02330217
KAMG 140653Z AUTO 00000KT 8SM CLR 23/22 A3002 RMK AO2 SLP164 T02330217
KAMG 140553Z AUTO 00000KT 9SM CLR 23/22 A3003 RMK AO2 SLP165 T02330217 10267 20228 58001
KAMG 140453Z AUTO 00000KT 9SM CLR 23/22 A3003 RMK AO2 SLP167 T02330222 403610228
KAMG 140353Z AUTO 00000KT 10SM CLR 24/22 A3003 RMK AO2 SLP167 T02440217
KAMG 140253Z AUTO 00000KT 10SM CLR 24/22 A3003 RMK AO2 SLP166 T02440217 53009
KAMG 140153Z AUTO 20003KT 10SM CLR 25/22 A3002 RMK AO2 SLP164 T02500217
KAMG 140053Z AUTO 00000KT 10SM CLR 26/21 A3000 RMK AO2 SLP154 T02560211
KAMG 132353Z AUTO 20006KT 10SM CLR 27/21 A3000 RMK AO2 SLP156 T02670211 10361 20267 51013
KAMG 132253Z AUTO 15010KT 10SM CLR 27/22 A2999 RMK AO2 LTG DSNT SE-W TSE2158 SLP154 T02720222
KAMG 132226Z AUTO 16010KT 10SM FEW055 29/22 A2999 RMK AO2 LTG DSNT SE-W TSE2158 T02890217
KAMG 132204Z AUTO 15013KT 10SM VCTS FEW055 29/22 A2999 RMK AO2 LTG DSNT SE-SW TSE2158 T02940217
KAMG 132153Z AUTO 14011G17KT 10SM TS FEW055 29/22 A2998 RMK AO2 LTG DSNT E-SW TSB13E38B43 SLP150 T02940217
KAMG 132119Z AUTO 10005KT 10SM TS BKN050 32/22 A2996 RMK AO2 LTG DSNT E-SW TSB13 T03170222
KAMG 132053Z AUTO VRB05KT 10SM VCTS FEW055 35/21 A2996 RMK AO2 LTG DSNT E-S TSB22E50 SLP144 T03500211 56017
KAMG 132028Z AUTO 27006KT 10SM TS CLR 36/20 A2995 RMK AO2 LTG DSNT E-S TSB22 T03560200
KAMG 132003Z AUTO 28006KT 10SM VCTS CLR 35/21 A2997 RMK AO2 LTG DSNT E-S T03500211
KAMG 131953Z AUTO 31005KT 10SM CLR 35/21 A2997 RMK AO2 LTG DSNT E-S SLP145 T03500211
KAMG 131853Z AUTO VRB05KT 10SM SCT048 SCT060 34/22 A3000 RMK AO2 LTG DSNT NE AND E SLP154 T03440217
KAMG 131844Z AUTO 32005KT 10SM VCTS FEW050 34/21 A2999 RMK AO2 LTG DSNT NE AND E T03440211
KAMG 131753Z AUTO 26005KT 10SM FEW041 FEW048 34/22 A3002 RMK AO2 SLP161 T03390222 10344 20239 58013
KAMG 131653Z AUTO 24004KT 10SM CLR 33/23 A3003 RMK AO2 SLP166 T03330233
KAMG 131553Z AUTO 00000KT 10SM CLR 32/22 A3005 RMK AO2 SLP172 T03170222
KAMG 131453Z AUTO VRB04KT 10SM CLR 29/23 A3005 RMK AO2 SLP173 T02940233 51007
KAMG 131353Z AUTO 20003KT 9SM CLR 27/23 A3005 RMK AO2 SLP173 T02720233
KAMG 131253Z AUTO 20005KT 9SM CLR 26/23 A3005 RMK AO2 SLP172 T02560228
KAMG 131153Z AUTO 00000KT 6SM BR CLR 24/23 A3003 RMK AO2 SLP167 T02390228 10256 20239 53009
KAMG 131053Z AUTO 00000KT 9SM CLR 24/22 A3002 RMK AO2 SLP164 T02390222
KAMG 130953Z AUTO 00000KT 9SM CLR 24/23 A3001 RMK AO2 SLP159 T02440228
KAMG 130853Z AUTO 18004KT 9SM CLR 24/23 A3000 RMK AO2 SLP157 T02440228 55005
KAMG 130753Z AUTO 00000KT 10SM CLR 25/23 A2999 RMK AO2 SLP152 T02500228